CST,Max TemperatureF,Mean TemperatureF,Min TemperatureF,Max Dew PointF,MeanDew PointF,Min DewpointF,Max Humidity, Mean Humidity, Min Humidity, Max Sea Level PressureIn, Mean Sea Level PressureIn, Min Sea Level PressureIn, Max VisibilityMiles, Mean VisibilityMiles, Min VisibilityMiles, Max Wind SpeedMPH, Mean Wind SpeedMPH, Max Gust SpeedMPH,PrecipitationIn, CloudCover, Events, WindDirDegrees
2012-12-1,48,42,35,43,37,32,93,87,76,30.05,29.84,29.70,6,3,2,16,10,,0.00,5,,170
2012-12-2,41,33,27,37,33,26,100,93,86,30.01,29.91,29.80,5,2,0,10,4,,0.00,3,Fog,113
2012-12-3,55,47,39,54,43,26,100,83,47,29.93,29.67,29.54,10,5,1,18,10,26,0.01,5,Rain,203
2012-12-4,43,32,21,27,17,10,70,57,47,30.43,30.21,29.94,10,10,10,14,9,21,0.00,0,,311
2012-12-5,42,30,19,25,15,10,71,54,41,30.43,30.19,29.87,10,10,10,21,9,29,0.00,2,,126
2012-12-6,46,37,28,36,28,20,76,62,53,30.02,29.88,29.79,10,10,10,17,12,24,0.00,3,,268
2012-12-7,30,26,21,27,23,18,93,84,69,30.08,30.04,30.01,10,5,1,10,3,,0.01,6,Snow,12
2012-12-8,32,29,26,27,24,23,89,81,73,30.08,30.04,30.00,10,8,3,13,4,,0.00,5,Snow,104
2012-12-9,32,26,19,30,27,14,96,89,75,30.01,29.89,29.79,10,2,0,20,11,26,0.43,8,Fog-Snow,59
2012-12-10,18,8,-2,13,2,-6,87,79,73,29.99,29.94,29.85,10,9,1,14,9,23,0.00,4,Snow,285
2012-12-11,19,14,8,13,9,2,92,82,73,30.05,29.90,29.78,10,7,2,9,4,,0.00,6,Snow,236
2012-12-12,39,26,12,27,21,9,88,69,54,30.04,29.93,29.86,10,9,5,12,7,,0.00,2,,153
2012-12-13,37,30,21,23,20,17,92,67,54,30.16,30.02,29.93,10,8,3,12,6,,0.00,0,,244
2012-12-14,39,26,15,29,19,12,93,80,62,30.16,30.04,29.82,10,5,1,12,3,,0.00,0,,96
2012-12-15,39,36,33,36,34,30,100,92,70,29.78,29.57,29.50,10,3,0,12,8,,0.30,8,Fog-Rain-Snow,54
2012-12-16,35,27,19,32,22,16,93,89,85,29.84,29.72,29.58,10,4,0,13,9,,0.00,8,Fog-Snow,299
2012-12-17,25,23,21,21,19,17,92,85,81,29.83,29.77,29.72,10,7,4,6,2,,0.00,8,Snow,69
2012-12-18,28,26,24,26,22,21,93,86,78,29.85,29.71,29.63,6,3,0,9,5,,0.00,8,Fog-Snow,103
2012-12-19,30,27,24,27,24,18,96,85,66,30.06,29.96,29.81,10,6,2,10,6,,0.00,6,Snow,220
2012-12-20,26,20,14,19,15,7,86,77,69,30.10,29.94,29.84,10,7,2,23,14,34,0.00,6,Snow,340
2012-12-21,21,14,8,8,5,3,83,73,57,30.31,30.25,30.11,10,10,9,13,8,20,0.00,0,,285
2012-12-22,28,18,9,15,10,3,81,71,56,30.22,30.07,30.00,10,10,8,9,3,,0.00,1,,27
2012-12-23,19,14,10,14,8,5,84,71,62,30.18,30.12,30.05,10,10,8,14,9,20,0.00,2,,27
2012-12-24,18,12,5,10,5,-2,79,69,59,30.33,30.13,30.01,10,9,2,13,9,,0.00,4,Snow,355
2012-12-25,12,6,0,1,-2,-7,80,72,61,30.54,30.48,30.35,10,10,10,8,5,,0.00,0,,330
2012-12-26,19,11,3,4,1,-3,76,65,47,30.45,30.36,30.28,10,10,10,7,4,,0.00,3,,11
2012-12-27,21,14,8,18,12,2,93,82,68,30.29,30.21,30.13,10,5,1,7,3,,0.02,6,Snow,72
2012-12-28,24,19,14,18,16,11,88,83,71,30.16,30.07,29.99,10,5,1,6,4,,0.01,7,Snow,29
2012-12-29,18,10,1,14,7,-2,88,82,70,30.23,30.12,30.02,10,7,2,12,6,,0.00,5,Snow,255
2012-12-30,24,12,0,15,6,-5,87,79,68,30.25,30.10,29.94,10,8,5,9,4,,0.00,0,,174
2012-12-31,17,9,-2,10,2,-8,80,67,53,30.31,30.18,29.98,10,10,8,12,8,18,0.00,1,,315